ADDS METAR Data INFO
IDs: Format: Raw Decoded Include TAF

Data at: 1746 UTC 21 Oct 2017

KPXE 211735Z AUTO 07009KT 10SM CLR 26/14 A3025 RMK AO2 T02640139
KPXE 211715Z AUTO 09007KT 10SM CLR 25/14 A3026 RMK AO2 T02530137
KPXE 211655Z AUTO 08009KT 10SM CLR 25/13 A3027 RMK AO2 T02480134
KPXE 211635Z AUTO 11008KT 10SM CLR 24/14 A3028 RMK AO2 T02440138
KPXE 211615Z AUTO 10009KT 10SM CLR 24/14 A3028 RMK AO2 T02430137
KPXE 211555Z AUTO 08009KT 10SM CLR 24/14 A3028 RMK AO2 T02380135
KPXE 211535Z AUTO 09008KT 10SM CLR 23/13 A3029 RMK AO2 T02310129
KPXE 211515Z AUTO 08009KT 10SM CLR 23/13 A3028 RMK AO2 T02280133
KPXE 211455Z AUTO 10009KT 10SM CLR 22/14 A3028 RMK AO2 T02190138
KPXE 211435Z AUTO 08007KT 10SM CLR 21/14 A3028 RMK AO2 T02090144
KPXE 211415Z AUTO 09006KT 10SM CLR 20/15 A3029 RMK AO2 T01990151
KPXE 211355Z AUTO 06005KT 10SM CLR 18/15 A3029 RMK AO2 T01830147
KPXE 211335Z AUTO 06004KT 10SM CLR 17/14 A3029 RMK AO2 T01690144
KPXE 211315Z AUTO 06004KT 10SM CLR 15/14 A3028 RMK AO2 T01550136
KPXE 211255Z AUTO 06003KT 10SM CLR 14/13 A3028 RMK AO2 T01430131
KPXE 211235Z AUTO 00000KT 10SM CLR 12/11 A3027 RMK AO2 T01190115
KPXE 211215Z AUTO 00000KT 10SM CLR 12/11 A3026 RMK AO2 T01160110
KPXE 211155Z AUTO 00000KT 10SM CLR 11/11 A3025 RMK AO2 T01120107 10124 20098
KPXE 211135Z AUTO 00000KT 10SM CLR 12/11 A3024 RMK AO2 T01160109
KPXE 211115Z AUTO 00000KT 10SM CLR 11/11 A3024 RMK AO2 T01110105
KPXE 211055Z AUTO 00000KT 10SM CLR 11/11 A3023 RMK AO2 T01120105
KPXE 211035Z AUTO 00000KT 10SM CLR 12/11 A3023 RMK AO2 T01170108
KPXE 211015Z AUTO 00000KT 10SM CLR 12/11 A3023 RMK AO2 T01230109
KPXE 210955Z AUTO 00000KT 10SM CLR 11/10 A3022 RMK AO2 T01120102
KPXE 210935Z AUTO 08003KT 10SM CLR 12/11 A3021 RMK AO2 T01160107
KPXE 210915Z AUTO 03003KT 10SM CLR 11/10 A3021 RMK AO2 T01150103
KPXE 210855Z AUTO 05005KT 10SM CLR 11/10 A3021 RMK AO2 T01110100
KPXE 210835Z AUTO 03003KT 10SM CLR 12/10 A3021 RMK AO2 T01160098
KPXE 210815Z AUTO 03003KT 10SM CLR 11/09 A3020 RMK AO2 T01110094
KPXE 210755Z AUTO 00000KT 10SM CLR 10/09 A3020 RMK AO2 T01040093
KPXE 210735Z AUTO 00000KT 10SM CLR 11/10 A3021 RMK AO2 T01070096
KPXE 210715Z AUTO 00000KT 10SM CLR 11/10 A3021 RMK AO2 T01060096
KPXE 210655Z AUTO 00000KT 10SM CLR 11/09 A3021 RMK AO2 T01080094
KPXE 210635Z AUTO 00000KT 10SM CLR 10/10 A3021 RMK AO2 T01040097
KPXE 210615Z AUTO 00000KT 10SM CLR 10/09 A3022 RMK AO2 T00990091
KPXE 210555Z AUTO 00000KT 10SM CLR 10/10 A3022 RMK AO2 T01030095 10152 20097
KPXE 210535Z AUTO 00000KT 10SM CLR 11/10 A3022 RMK AO2 T01120098
KPXE 210515Z AUTO 00000KT 10SM CLR 11/10 A3021 RMK AO2 T01130097
KPXE 210455Z AUTO 00000KT 7SM BR CLR 10/09 A3021 RMK AO2 T00970090
KPXE 210435Z AUTO 00000KT 7SM BR CLR 11/10 A3021 RMK AO2 T01090098
KPXE 210415Z AUTO 36003KT 7SM BR CLR 11/10 A3021 RMK AO2 T01060098
KPXE 210355Z AUTO 00000KT 7SM CLR 11/10 A3021 RMK AO2 T01120100
KPXE 210335Z AUTO 36003KT 10SM CLR 11/10 A3021 RMK AO2 T01130097
KPXE 210315Z AUTO 00000KT 10SM CLR 11/09 A3021 RMK AO2 T01060094
KPXE 210255Z AUTO 00000KT 10SM CLR 11/09 A3020 RMK AO2 T01060095
KPXE 210235Z AUTO 36003KT 10SM CLR 11/10 A3020 RMK AO2 T01150102
KPXE 210215Z AUTO 00000KT 10SM CLR 12/10 A3020 RMK AO2 T01210104
KPXE 210155Z AUTO 00000KT 10SM CLR 12/11 A3019 RMK AO2 T01250106
KPXE 210135Z AUTO 00000KT 7SM BR CLR 13/11 A3019 RMK AO2 T01300110
KPXE 210115Z AUTO 00000KT 7SM CLR 14/11 A3019 RMK AO2 T01350111
KPXE 210055Z AUTO 00000KT 10SM CLR 14/11 A3019 RMK AO2 T01380112
KPXE 210035Z AUTO 00000KT 10SM CLR 14/12 A3019 RMK AO2 T01380116
KPXE 210015Z AUTO 00000KT 10SM CLR 14/11 A3018 RMK AO2 T01450115
KPXE 202355Z AUTO 06003KT 10SM CLR 14/11 A3018 RMK AO2 T01390111 10273 20137 402730066
KPXE 202335Z AUTO 00000KT 7SM HZ CLR 16/12 A3018 RMK AO2 T01630115
KPXE 202315Z AUTO 00000KT 10SM CLR 18/12 A3017 RMK AO2 T01840123
KPXE 202255Z AUTO 00000KT 10SM CLR 19/11 A3017 RMK AO2 T01920113
KPXE 202235Z AUTO 07003KT 10SM CLR 22/11 A3017 RMK AO2 T02180105
KPXE 202215Z AUTO 10005KT 10SM CLR 25/09 A3017 RMK AO2 T02450085
KPXE 202155Z AUTO 08004KT 10SM CLR 26/09 A3016 RMK AO2 T02560090
KPXE 202135Z AUTO 05004KT 10SM CLR 26/09 A3016 RMK AO2 T02620087
KPXE 202115Z AUTO 11005KT 10SM CLR 26/07 A3017 RMK AO2 T02640075
KPXE 202055Z AUTO 09006KT 10SM CLR 27/07 A3017 RMK AO2 T02670071
KPXE 202035Z AUTO 06003KT 10SM CLR 27/07 A3017 RMK AO2 T02680070
KPXE 202015Z AUTO 08006KT 10SM CLR 27/06 A3018 RMK AO2 T02660063
KPXE 201955Z AUTO 09006KT 10SM CLR 27/07 A3018 RMK AO2 T02710067
KPXE 201935Z AUTO 05006KT 10SM CLR 27/06 A3018 RMK AO2 T02690061
KPXE 201915Z AUTO 12006KT 10SM CLR 26/07 A3019 RMK AO2 T02650071
KPXE 201855Z AUTO 08004KT 10SM CLR 27/09 A3019 RMK AO2 T02690092
KPXE 201835Z AUTO 05004KT 10SM CLR 26/08 A3020 RMK AO2 T02590080
KPXE 201815Z AUTO 35005KT 10SM CLR 25/07 A3021 RMK AO2 T02540075
KPXE 201755Z AUTO 02004KT 10SM CLR 25/08 A3022 RMK AO2 T02540078 10261 20082
KPXE 201735Z AUTO 06005KT 10SM CLR 25/09 A3024 RMK AO2 T02520093
KPXE 201715Z AUTO 05005KT 10SM CLR 25/08 A3025 RMK AO2 T02480081
KPXE 201655Z AUTO 05007KT 010V080 10SM CLR 24/10 A3025 RMK AO2 T02420100
KPXE 201635Z AUTO 02005KT 10SM CLR 24/11 A3026 RMK AO2 T02360106
KPXE 201615Z AUTO 07005KT 10SM CLR 23/11 A3027 RMK AO2 T02330105
KPXE 201555Z AUTO 06007KT 10SM CLR 23/11 A3027 RMK AO2 T02300110
KPXE 201535Z AUTO 09007KT 10SM CLR 22/12 A3028 RMK AO2 T02210117
KPXE 201515Z AUTO 04005KT 10SM CLR 21/12 A3028 RMK AO2 T02130120
KPXE 201455Z AUTO 10003KT 10SM CLR 19/12 A3029 RMK AO2 T01950119
KPXE 201435Z AUTO 00000KT 10SM CLR 18/11 A3030 RMK AO2 T01800115
KPXE 201415Z AUTO 00000KT 10SM CLR 17/11 A3030 RMK AO2 T01680111
KPXE 201355Z AUTO 00000KT 10SM CLR 16/11 A3029 RMK AO2 T01580105
KPXE 201335Z AUTO 02004KT 10SM CLR 14/10 A3029 RMK AO2 T01430099
KPXE 201315Z AUTO 03004KT 10SM CLR 13/10 A3029 RMK AO2 T01290096
KPXE 201255Z AUTO 01003KT 10SM CLR 11/10 A3028 RMK AO2 T01150096
KPXE 201235Z AUTO 36003KT 10SM CLR 10/09 A3028 RMK AO2 T00970085
KPXE 201215Z AUTO 00000KT 10SM CLR 08/08 A3027 RMK AO2 T00850077
KPXE 201155Z AUTO 00000KT 10SM CLR 08/07 A3027 RMK AO2 T00810071 10100 20066
KPXE 201135Z AUTO 36005KT 10SM CLR 08/07 A3026 RMK AO2 T00790072
KPXE 201115Z AUTO 34003KT 10SM CLR 08/07 A3027 RMK AO2 T00840072
KPXE 201055Z AUTO 00000KT 10SM CLR 07/07 A3026 RMK AO2 T00730070
KPXE 201035Z AUTO 00000KT 10SM CLR 07/07 A3025 RMK AO2 T00710065
KPXE 201015Z AUTO 34003KT 10SM CLR 09/08 A3025 RMK AO2 T00860075
KPXE 200955Z AUTO 35004KT 10SM CLR 08/07 A3024 RMK AO2 T00780073
KPXE 200935Z AUTO 34003KT 10SM CLR 08/08 A3024 RMK AO2 T00840077
KPXE 200915Z AUTO 34003KT 10SM CLR 08/07 A3023 RMK AO2 T00780072
KPXE 200855Z AUTO 00000KT 10SM CLR 08/07 A3023 RMK AO2 T00750072
KPXE 200835Z AUTO 00000KT 10SM CLR 07/06 A3023 RMK AO2 T00700064
KPXE 200815Z AUTO 00000KT 10SM CLR 08/08 A3022 RMK AO2 T00830077
KPXE 200755Z AUTO 33003KT 10SM CLR 08/08 A3023 RMK AO2 T00820077
KPXE 200735Z AUTO 00000KT 10SM CLR 08/07 A3023 RMK AO2 T00810074
KPXE 200715Z AUTO 00000KT 10SM CLR 09/08 A3023 RMK AO2 T00940084
KPXE 200655Z AUTO 34003KT 10SM CLR 09/09 A3023 RMK AO2 T00950086
KPXE 200635Z AUTO 34003KT 10SM CLR 09/09 A3023 RMK AO2 T00930087
KPXE 200615Z AUTO 34003KT 10SM CLR 10/09 A3024 RMK AO2 T00960090
KPXE 200555Z AUTO 34003KT 10SM CLR 09/09 A3024 RMK AO2 T00950087 10157 20093